Gaston, SC

8:21 AM EDT on September 21, 2014 (GMT -0400)
Sandy Run | Change Station
CLOSE
Current Station
Personal Weather Station
Location: Gaston, SC
Elevation: 210 ft
Nearby Weather Stations

Elev 210 ft 33.84 °N, 81.00 °W | Updated 41 seconds ago

Clear
Clear
62.8 °F
Feels Like 62.8 °F
N
0.0
Wind Variable Wind from NW
Gusts 0.0 mph

Today
High -- | Low -- °F
--% Chance of Precip.
Yesterday
High -- | Low -- °F
Precip. -- in
7:11 AM 7:22 PM
Waning Crescent, 7% visible
Pressure 29.97 in
Visibility 7.0 miles
Clouds Few 14000 ft
Dew Point 62 °F
Humidity 99%
Rainfall 0.02 in
Snow Depth Not available.
UV 0 out of 12
Pollen 8.00 out of 12
Ozone Good
Flu Activity Not available.
METAR KCAE 211156Z 25003KT 7SM FEW140 17/15 A2997 RMK AO2 SLP147 T01670150 10206 20161 53010

More Conditions Fewer Conditions

Pressure 29.97 in
Visibility 7.0 miles
Clouds Few 14000 ft
Dew Point 62 °F
Humidity 99%
Rainfall 0.02 in
Snow Depth Not available.
UV 0 out of 12
Pollen 8.00 out of 12
Ozone Good
Flu Activity Not available.
METAR KCAE 211156Z 25003KT 7SM FEW140 17/15 A2997 RMK AO2 SLP147 T01670150 10206 20161 53010

More Conditions Fewer Conditions

10-Day Weather Forecast

Almanac

Astronomy

Sep. 21, 2014 Rise Set
Actual Time 7:11 AM EDT 7:22 PM EDT
Civil Twilight 6:46 AM EDT 7:47 PM EDT
Nautical Twilight 6:17 AM EDT 8:16 PM EDT
Astronomical Twilight 5:47 AM EDT 8:45 PM EDT
Moon 4:49 AM EDT 5:53 PM EDT
Length of Visible Light 13h 00m
Length of Day
12h 10m
Tomorrow will be 2m 5s shorter.
Waning Crescent, 7% of the Moon is Illuminated
Today
Waning Crescent
Sep 24
New
Oct 1
First Quarter
Oct 8
Full
Oct 15
Last Quarter

Today's Extremes

State Highs State Lows

Community

WunderPhotos

Upload Photos

1,755,126 photos uploaded!

Nearby

Air Quality

  Air Quality AQ Index Pollutant
Yesterday Good
OZONE
Current Good
OZONE
Sunday Good
OZONE

Snow Depth

Station Depth Elevation
No new snow has been reported.

Earthquake Activity

City Distance Mag. Time & Date
New Ellenton, South Carolina 49 miles 2.6 4:38 PM EDT
2014-09-19
Minimum magnitude displayed is 2.5.

Coastal Water Temperatures

Place Temperature
No Stations Reporting

Nearby Weather Stations